Budapest Bridge — VRIZ5 — position and weather

sailwx.info

Track history (hours):
 
Tides and Currents Weather Stations Pressure Air Temp Water Temp Dewpoint Dewpoint Depression Visibility Wind Speed Wind Dir Waves Ship Positions

Budapest Bridge

Last reported at 2018-Aug-16 07:15 UTC. Time now 2018-Aug-16 08:44 UTC.
Position N 31°56' W 080°00'.

Length 268 m; draft 9.2 m.

Type: Ship (hazmat cat D). MMSI: 477434200.

Date/timePositionNaut miles runAvg speedWind from/ knotsBaromVisibWave heightAir tempDewpointWater temp
2018-Aug-16 07:15N 31°56' W 080°00'616.4
2018-Aug-16 06:53N 31°56' W 080°07'616.3
2018-Aug-16 06:31N 31°56' W 080°15'816.3
2018-Aug-16 06:01N 31°56' W 080°24'816.6
2018-Aug-16 05:31N 31°56' W 080°34'714.5
2018-Aug-16 05:00N 31°58' W 080°42'612.8
2018-Aug-16 04:30N 32°01' W 080°48'611.6
2018-Aug-16 04:00N 32°02' W 080°55'510.7
2018-Aug-16 03:30N 32°06' W 080°60'4 8.1
2018-Aug-16 02:59N 32°05' W 081°05'3 6.4
2018-Aug-16 02:30N 32°07' W 081°07'1 2.3
2018-Aug-16 01:55N 32°08' W 081°08'0 0.0
2018-Aug-16 01:25N 32°08' W 081°08'0 0.0
2018-Aug-16 00:55N 32°08' W 081°08'0 0.0
2018-Aug-16 00:25N 32°08' W 081°08'0 0.0
2018-Aug-15 23:55N 32°08' W 081°08'0 0.0
2018-Aug-15 23:25N 32°08' W 081°08'0 0.0
2018-Aug-15 22:55N 32°08' W 081°08'0 0.0
2018-Aug-15 22:25N 32°08' W 081°08'0 0.0
2018-Aug-15 21:55N 32°08' W 081°08'0 0.0
2018-Aug-15 21:25N 32°08' W 081°08'0 0.0
2018-Aug-15 20:55N 32°08' W 081°08'0 0.0
2018-Aug-15 20:25N 32°08' W 081°08'0 0.0
2018-Aug-15 19:55N 32°08' W 081°08'0 0.0
2018-Aug-15 19:25N 32°08' W 081°08'0 0.0
2018-Aug-15 18:49N 32°08' W 081°08'0 0.0
2018-Aug-15 18:25N 32°08' W 081°08'0 0.0
2018-Aug-15 17:55N 32°08' W 081°08'0 0.0
2018-Aug-15 17:25N 32°08' W 081°08'0 0.0
2018-Aug-15 16:49N 32°08' W 081°08'0 0.0
2018-Aug-15 16:25N 32°08' W 081°08'0 0.0
2018-Aug-15 15:55N 32°08' W 081°08'0 0.0
2018-Aug-15 15:25N 32°08' W 081°08'0 0.0
2018-Aug-15 14:55N 32°08' W 081°08'0 0.0
2018-Aug-15 14:19N 32°08' W 081°08'0 0.0
2018-Aug-15 13:55N 32°08' W 081°08'0 0.0
2018-Aug-15 13:19N 32°08' W 081°08'0 0.0
2018-Aug-15 12:55N 32°08' W 081°08'0 0.0
2018-Aug-15 12:19N 32°08' W 081°08'0 0.0
2018-Aug-15 11:55N 32°08' W 081°08'0 0.0
2018-Aug-15 11:19N 32°08' W 081°08'0 0.0
2018-Aug-15 10:55N 32°08' W 081°08'0 0.0
2018-Aug-15 10:25N 32°08' W 081°08'0 0.3
2018-Aug-15 10:00N 32°08' W 081°08'1 2.4
2018-Aug-15 09:30N 32°07' W 081°08'3 6.8
2018-Aug-15 09:00N 32°05' W 081°04'4 8.0
2018-Aug-15 08:30N 32°06' W 080°60'611.2
2018-Aug-15 08:00N 32°02' W 080°55'611.2
2018-Aug-15 07:30N 32°01' W 080°48'713.9
2018-Aug-15 07:00N 31°58' W 080°41'3 6.9
2018-Aug-15 06:30N 31°57' W 080°37'1 1.7
2018-Aug-15 06:00N 31°58' W 080°37'0 0.1
2018-Aug-15 05:30N 31°58' W 080°37'0 0.0
2018-Aug-15 05:00N 31°58' W 080°37'0 0.0
2018-Aug-15 04:30N 31°58' W 080°37'0 0.0
2018-Aug-15 04:00N 31°58' W 080°37'0 0.1
2018-Aug-15 03:24N 31°58' W 080°37'0 0.0
2018-Aug-15 02:54N 31°58' W 080°37'0 0.0
2018-Aug-15 00:12N 31°58' W 080°37'0 0.0
2018-Aug-14 23:48N 31°58' W 080°37'5 5.5
2018-Aug-14 23:00N 31°54' W 080°36'4 1.6 350 / 191019.010.8 26.021.5
2018-Aug-14 20:06N 31°58' W 080°37'0 0.1
2018-Aug-14 19:54N 31°58' W 080°37'0 0.1
2018-Aug-14 19:18N 31°58' W 080°37'0 0.1
2018-Aug-14 18:54N 31°58' W 080°37'0 0.0
2018-Aug-14 18:30N 31°58' W 080°37'0 0.0
2018-Aug-14 18:00N 31°58' W 080°37'0 0.0
2018-Aug-14 17:30N 31°58' W 080°37'0 0.0
2018-Aug-14 17:00N 31°58' W 080°37'0 0.1
2018-Aug-14 16:30N 31°58' W 080°37'2 4.1
2018-Aug-14 16:00N 31°58' W 080°34'611.0
2018-Aug-14 15:30N 31°57' W 080°28'4 6.2
2018-Aug-14 14:54N 31°57' W 080°24'3 6.5
2018-Aug-14 14:29N 31°58' W 080°21'611.7
2018-Aug-14 13:58N 31°58' W 080°14'613.4
2018-Aug-14 13:30N 31°59' W 080°06'817.2
2018-Aug-14 13:00N 32°01' W 079°57'917.8
2018-Aug-14 12:30N 32°04' W 079°47'1119.9
2018-Aug-14 11:57N 32°08' W 079°35'920.0
2018-Aug-14 11:31N 32°12' W 079°25'1120.3
2018-Aug-14 10:58N 32°18' W 079°14'13519.4
2018-Aug-14 04:00N 33°24' W 076°54'21513.9 030 / 331018.0 26.019.925.0
2018-Aug-13 12:33N 36°58' W 076°20'0 9.5
2018-Aug-13 12:30N 36°57' W 076°20'3 5.2
2018-Aug-13 12:00N 36°55' W 076°20'0 0.0
2018-Aug-13 10:39N 36°55' W 076°20'0 0.0
2018-Aug-13 10:21N 36°55' W 076°20'0 0.0
2018-Aug-13 10:00N 36°55' W 076°20'0 0.0
2018-Aug-13 09:30N 36°55' W 076°20'0 0.0
2018-Aug-13 09:00N 36°55' W 076°20'0 0.0
2018-Aug-13 08:27N 36°55' W 076°20'0 0.0
2018-Aug-13 08:00N 36°55' W 076°20'0 0.0
2018-Aug-13 07:30N 36°55' W 076°20'0 0.0
2018-Aug-13 07:00N 36°55' W 076°20'0 0.0
2018-Aug-13 05:57N 36°55' W 076°20'0 0.0
2018-Aug-13 05:15N 36°55' W 076°20'0 0.0
2018-Aug-13 04:57N 36°55' W 076°20'0 0.0
2018-Aug-13 04:27N 36°55' W 076°20'0 0.0
2018-Aug-13 03:57N 36°55' W 076°20'0 0.0
2018-Aug-13 03:30N 36°55' W 076°20'0 0.0
2018-Aug-13 03:00N 36°55' W 076°20'0 0.0
2018-Aug-13 02:30N 36°55' W 076°20'0 0.0
2018-Aug-13 02:00N 36°55' W 076°20'0 0.0
2018-Aug-13 01:21N 36°55' W 076°20'0 0.0
2018-Aug-13 01:00N 36°55' W 076°20'0 0.0
2018-Aug-13 00:27N 36°55' W 076°20'0 0.0
2018-Aug-13 00:00N 36°55' W 076°20'0 0.0
2018-Aug-12 23:30N 36°55' W 076°20'0 0.0
2018-Aug-12 22:51N 36°55' W 076°20'0 0.0
2018-Aug-12 22:27N 36°55' W 076°20'0 0.0
2018-Aug-12 21:57N 36°55' W 076°20'0 0.0
2018-Aug-12 21:30N 36°55' W 076°20'0 0.0
2018-Aug-12 21:00N 36°55' W 076°20'0 0.0
2018-Aug-12 20:30N 36°55' W 076°20'0 0.0
2018-Aug-12 20:00N 36°55' W 076°20'0 0.0
2018-Aug-12 19:30N 36°55' W 076°20'0 0.1
2018-Aug-12 19:00N 36°55' W 076°20'0 0.0
2018-Aug-12 18:30N 36°55' W 076°20'0 0.0
2018-Aug-12 18:00N 36°55' W 076°20'0 0.0
2018-Aug-12 17:30N 36°55' W 076°20'0 0.1
2018-Aug-12 16:57N 36°55' W 076°20'0 0.1
2018-Aug-12 16:30N 36°55' W 076°20'0 0.0
2018-Aug-12 16:00N 36°55' W 076°20'0 0.0
2018-Aug-12 15:30N 36°55' W 076°20'0 0.0
2018-Aug-12 15:00N 36°55' W 076°20'0 0.0
2018-Aug-12 14:30N 36°55' W 076°20'0 0.0
2018-Aug-12 14:00N 36°55' W 076°20'0 0.0
2018-Aug-12 13:30N 36°55' W 076°20'0 0.0
2018-Aug-12 12:54N 36°55' W 076°20'0 0.0
2018-Aug-12 12:30N 36°55' W 076°20'0 0.0
2018-Aug-12 12:00N 36°55' W 076°20'0 0.0
2018-Aug-12 11:30N 36°55' W 076°20'0 0.0
2018-Aug-12 11:00N 36°55' W 076°20'0 0.0
2018-Aug-12 10:30N 36°55' W 076°20'0 0.0
2018-Aug-12 10:00N 36°55' W 076°20'0 0.0
2018-Aug-12 09:30N 36°55' W 076°20'1 1.4
2018-Aug-12 09:01N 36°55' W 076°20'4 7.6
2018-Aug-12 08:26N 36°59' W 076°19'711.2
2018-Aug-12 07:51N 36°59' W 076°11'18813.3
2018-Aug-11 17:44N 39°34' W 073°53'418.1
2018-Aug-11 17:30N 39°38' W 073°53'917.9
2018-Aug-11 17:00N 39°47' W 073°52'1217.8
2018-Aug-11 16:20N 39°59' W 073°51'2113.1
2018-Aug-11 14:45N 40°19' W 073°49'3 9.7
2018-Aug-11 14:29N 40°22' W 073°49'4 9.4
2018-Aug-11 14:00N 40°26' W 073°50'5 9.5
2018-Aug-11 13:30N 40°29' W 073°55'5 9.7
2018-Aug-11 13:00N 40°31' W 074°00'5 9.3
2018-Aug-11 12:30N 40°36' W 074°03'4 7.7
2018-Aug-11 12:00N 40°39' W 074°05'3 5.3
2018-Aug-11 11:30N 40°39' W 074°09'1 2.7
2018-Aug-11 10:57N 40°41' W 074°08'0 0.0
2018-Aug-11 10:30N 40°41' W 074°08'0 0.0
2018-Aug-11 09:57N 40°41' W 074°08'0 0.0
2018-Aug-11 09:30N 40°41' W 074°08'0 0.0
2018-Aug-11 08:57N 40°41' W 074°08'0 0.0
2018-Aug-11 08:30N 40°41' W 074°08'0 0.0
2018-Aug-11 07:57N 40°41' W 074°08'0 0.0
2018-Aug-11 07:30N 40°41' W 074°08'0 0.0
2018-Aug-11 07:00N 40°41' W 074°08'0 0.0
2018-Aug-11 06:30N 40°41' W 074°09'0 0.0
2018-Aug-11 06:00N 40°41' W 074°08'0 0.0
2018-Aug-11 05:30N 40°41' W 074°08'0 0.0
2018-Aug-11 05:00N 40°41' W 074°08'0 0.0
2018-Aug-11 04:30N 40°41' W 074°08'0 0.0
2018-Aug-11 04:00N 40°41' W 074°08'0 0.0
2018-Aug-11 03:30N 40°41' W 074°09'0 0.0
2018-Aug-11 03:00N 40°41' W 074°09'0 0.0
2018-Aug-11 02:30N 40°41' W 074°08'0 0.0
2018-Aug-11 02:00N 40°41' W 074°09'0 0.1
2018-Aug-11 01:30N 40°41' W 074°08'0 0.0
2018-Aug-11 00:57N 40°41' W 074°08'0 0.0
2018-Aug-11 00:30N 40°41' W 074°08'0 0.0
2018-Aug-10 23:57N 40°41' W 074°08'0 0.0
2018-Aug-10 23:30N 40°41' W 074°09'0 0.0
2018-Aug-10 23:00N 40°41' W 074°08'0 0.0
2018-Aug-10 22:30N 40°41' W 074°08'0 0.0
2018-Aug-10 22:00N 40°41' W 074°08'0 0.0
2018-Aug-10 21:30N 40°41' W 074°08'0 0.0
2018-Aug-10 21:00N 40°41' W 074°08'0 0.0
2018-Aug-10 20:30N 40°41' W 074°08'0 0.0
2018-Aug-10 20:00N 40°41' W 074°08'0 0.0
2018-Aug-10 19:30N 40°41' W 074°08'0 0.0
2018-Aug-10 18:57N 40°41' W 074°08'0 0.0
2018-Aug-10 18:27N 40°41' W 074°08'0 0.0
2018-Aug-10 17:54N 40°41' W 074°08'0 0.0
2018-Aug-10 17:27N 40°41' W 074°08'0 0.0
2018-Aug-10 17:00N 40°41' W 074°08'0 0.0
2018-Aug-10 16:27N 40°41' W 074°08'0 0.0
2018-Aug-10 16:00N 40°41' W 074°08'0 0.0
2018-Aug-10 15:30N 40°41' W 074°08'0 0.0
2018-Aug-10 15:00N 40°41' W 074°08'0 0.0
2018-Aug-10 14:27N 40°41' W 074°08'0 0.0
2018-Aug-10 14:00N 40°41' W 074°08'0 0.0
2018-Aug-10 13:30N 40°41' W 074°08'0 0.0
2018-Aug-10 12:57N 40°41' W 074°08'0 0.0
2018-Aug-10 12:30N 40°41' W 074°08'0 0.0
2018-Aug-10 12:00N 40°41' W 074°08'0 0.0
2018-Aug-10 11:30N 40°41' W 074°08'0 0.0
2018-Aug-10 11:00N 40°41' W 074°08'0 0.0
2018-Aug-10 10:30N 40°41' W 074°08'0 0.0
2018-Aug-10 10:00N 40°41' W 074°08'0 0.0
2018-Aug-10 09:30N 40°41' W 074°08'0 0.0
2018-Aug-10 09:00N 40°41' W 074°08'0 0.0
2018-Aug-10 08:30N 40°41' W 074°08'0 0.0
2018-Aug-10 08:01N 40°41' W 074°08'0 0.0
2018-Aug-10 07:30N 40°41' W 074°08'0 0.0
2018-Aug-10 07:00N 40°41' W 074°08'0 0.0
2018-Aug-10 06:30N 40°41' W 074°08'0 0.0
2018-Aug-10 06:00N 40°41' W 074°08'0 0.0
2018-Aug-10 05:30N 40°41' W 074°08'0 0.0
2018-Aug-10 05:00N 40°41' W 074°08'0 0.0
2018-Aug-10 04:30N 40°41' W 074°08'0 0.0
2018-Aug-10 04:00N 40°41' W 074°08'0 0.0
2018-Aug-10 03:30N 40°41' W 074°08'0 0.0
2018-Aug-10 03:00N 40°41' W 074°08'0 0.0
2018-Aug-10 02:30N 40°41' W 074°08'0 0.0
2018-Aug-10 02:00N 40°41' W 074°08'0 0.0
2018-Aug-10 01:30N 40°41' W 074°08'0 0.0
2018-Aug-10 01:00N 40°41' W 074°08'0 0.0
2018-Aug-10 00:30N 40°41' W 074°08'0 0.0
2018-Aug-10 00:00N 40°41' W 074°08'0 0.0
2018-Aug-09 23:27N 40°41' W 074°08'0 0.0
2018-Aug-09 23:00N 40°41' W 074°08'0 0.0
2018-Aug-09 22:30N 40°41' W 074°09'0 0.0
2018-Aug-09 22:00N 40°41' W 074°08'0 0.0
2018-Aug-09 21:30N 40°41' W 074°08'0 0.2
2018-Aug-09 21:00N 40°41' W 074°08'2 4.0
2018-Aug-09 20:30N 40°39' W 074°09'4 7.4
2018-Aug-09 20:00N 40°39' W 074°04'4 8.6
2018-Aug-09 19:30N 40°35' W 074°02'5 9.1
2018-Aug-09 19:00N 40°31' W 073°59'5 9.8
2018-Aug-09 18:30N 40°29' W 073°53'4 8.3
2018-Aug-09 17:58N 40°27' W 073°48'6 4.3
2018-Aug-09 16:36N 40°29' W 073°41'1 7.8
2018-Aug-09 16:29N 40°29' W 073°40'1 0.6
2018-Aug-09 14:46N 40°29' W 073°38'0 0.0
2018-Aug-09 14:25N 40°29' W 073°38'0 0.0
2018-Aug-09 12:22N 40°29' W 073°38'0 0.0
2018-Aug-09 06:31N 40°29' W 073°38'0 0.0
2018-Aug-09 05:43N 40°29' W 073°38'0 0.0
2018-Aug-09 05:28N 40°29' W 073°38'0 0.0
2018-Aug-08 23:40N 40°29' W 073°38'0 0.0
2018-Aug-08 23:28N 40°29' W 073°38'0 0.0
2018-Aug-08 21:51N 40°29' W 073°38'0 0.0
2018-Aug-08 21:30N 40°29' W 073°38'1 1.9
2018-Aug-08 20:57N 40°28' W 073°38'4 9.2
2018-Aug-08 20:30N 40°28' W 073°32'610.7
2018-Aug-08 19:59N 40°28' W 073°25'611.8
2018-Aug-08 19:30N 40°29' W 073°18'611.8
2018-Aug-08 19:00N 40°29' W 073°10'611.8
2018-Aug-08 18:30N 40°30' W 073°02'612.0
2018-Aug-08 17:59N 40°30' W 072°54'11411.4
2018-Aug-08 08:00N 40°30' W 070°24'5012.5 340 / 161016.010.8 22.018.925.0
2018-Aug-08 04:00N 40°30' W 069°18'1512.4 110 / 281018.0 21.019.422.0
2018-Aug-08 02:48N 40°35' W 068°59'2311.5
2018-Aug-08 00:49N 40°41' W 068°31'411.7
2018-Aug-08 00:30N 40°42' W 068°26'1311.1
2018-Aug-07 23:18N 40°48' W 068°10'611.3
2018-Aug-07 22:44N 40°51' W 068°03'  
Track history (hours):
 
Tides and Currents Weather Stations Pressure Air Temp Water Temp Dewpoint Dewpoint Depression Visibility Wind Speed Wind Dir Waves Ship Positions

Budapest Bridge

Last reported at 2018-Aug-16 07:15 UTC. Time now 2018-Aug-16 08:44 UTC.
Position N 31°56' W 080°00'.

Length 268 m; draft 9.2 m.

Type: Ship (hazmat cat D). MMSI: 477434200.

Date/timePositionNaut miles runAvg speedWind from/ knotsBaromVisibWave heightAir tempDewpointWater temp
2018-Aug-16 07:15N 31°56' W 080°00'616.4
2018-Aug-16 06:53N 31°56' W 080°07'616.3
2018-Aug-16 06:31N 31°56' W 080°15'816.3
2018-Aug-16 06:01N 31°56' W 080°24'816.6
2018-Aug-16 05:31N 31°56' W 080°34'714.5
2018-Aug-16 05:00N 31°58' W 080°42'612.8
2018-Aug-16 04:30N 32°01' W 080°48'611.6
2018-Aug-16 04:00N 32°02' W 080°55'510.7
2018-Aug-16 03:30N 32°06' W 080°60'4 8.1
2018-Aug-16 02:59N 32°05' W 081°05'3 6.4
2018-Aug-16 02:30N 32°07' W 081°07'1 2.3
2018-Aug-16 01:55N 32°08' W 081°08'0 0.0
2018-Aug-16 01:25N 32°08' W 081°08'0 0.0
2018-Aug-16 00:55N 32°08' W 081°08'0 0.0
2018-Aug-16 00:25N 32°08' W 081°08'0 0.0
2018-Aug-15 23:55N 32°08' W 081°08'0 0.0
2018-Aug-15 23:25N 32°08' W 081°08'0 0.0
2018-Aug-15 22:55N 32°08' W 081°08'0 0.0
2018-Aug-15 22:25N 32°08' W 081°08'0 0.0
2018-Aug-15 21:55N 32°08' W 081°08'0 0.0
2018-Aug-15 21:25N 32°08' W 081°08'0 0.0
2018-Aug-15 20:55N 32°08' W 081°08'0 0.0
2018-Aug-15 20:25N 32°08' W 081°08'0 0.0
2018-Aug-15 19:55N 32°08' W 081°08'0 0.0
2018-Aug-15 19:25N 32°08' W 081°08'0 0.0
2018-Aug-15 18:49N 32°08' W 081°08'0 0.0
2018-Aug-15 18:25N 32°08' W 081°08'0 0.0
2018-Aug-15 17:55N 32°08' W 081°08'0 0.0
2018-Aug-15 17:25N 32°08' W 081°08'0 0.0
2018-Aug-15 16:49N 32°08' W 081°08'0 0.0
2018-Aug-15 16:25N 32°08' W 081°08'0 0.0
2018-Aug-15 15:55N 32°08' W 081°08'0 0.0
2018-Aug-15 15:25N 32°08' W 081°08'0 0.0
2018-Aug-15 14:55N 32°08' W 081°08'0 0.0
2018-Aug-15 14:19N 32°08' W 081°08'0 0.0
2018-Aug-15 13:55N 32°08' W 081°08'0 0.0
2018-Aug-15 13:19N 32°08' W 081°08'0 0.0
2018-Aug-15 12:55N 32°08' W 081°08'0 0.0
2018-Aug-15 12:19N 32°08' W 081°08'0 0.0
2018-Aug-15 11:55N 32°08' W 081°08'0 0.0
2018-Aug-15 11:19N 32°08' W 081°08'0 0.0
2018-Aug-15 10:55N 32°08' W 081°08'0 0.0
2018-Aug-15 10:25N 32°08' W 081°08'0 0.3
2018-Aug-15 10:00N 32°08' W 081°08'1 2.4
2018-Aug-15 09:30N 32°07' W 081°08'3 6.8
2018-Aug-15 09:00N 32°05' W 081°04'4 8.0
2018-Aug-15 08:30N 32°06' W 080°60'611.2
2018-Aug-15 08:00N 32°02' W 080°55'611.2
2018-Aug-15 07:30N 32°01' W 080°48'713.9
2018-Aug-15 07:00N 31°58' W 080°41'3 6.9
2018-Aug-15 06:30N 31°57' W 080°37'1 1.7
2018-Aug-15 06:00N 31°58' W 080°37'0 0.1
2018-Aug-15 05:30N 31°58' W 080°37'0 0.0
2018-Aug-15 05:00N 31°58' W 080°37'0 0.0
2018-Aug-15 04:30N 31°58' W 080°37'0 0.0
2018-Aug-15 04:00N 31°58' W 080°37'0 0.1
2018-Aug-15 03:24N 31°58' W 080°37'0 0.0
2018-Aug-15 02:54N 31°58' W 080°37'0 0.0
2018-Aug-15 00:12N 31°58' W 080°37'0 0.0
2018-Aug-14 23:48N 31°58' W 080°37'5 5.5
2018-Aug-14 23:00N 31°54' W 080°36'4 1.6 350 / 191019.010.8 26.021.5
2018-Aug-14 20:06N 31°58' W 080°37'0 0.1
2018-Aug-14 19:54N 31°58' W 080°37'0 0.1
2018-Aug-14 19:18N 31°58' W 080°37'0 0.1
2018-Aug-14 18:54N 31°58' W 080°37'0 0.0
2018-Aug-14 18:30N 31°58' W 080°37'0 0.0
2018-Aug-14 18:00N 31°58' W 080°37'0 0.0
2018-Aug-14 17:30N 31°58' W 080°37'0 0.0
2018-Aug-14 17:00N 31°58' W 080°37'0 0.1
2018-Aug-14 16:30N 31°58' W 080°37'2 4.1
2018-Aug-14 16:00N 31°58' W 080°34'611.0
2018-Aug-14 15:30N 31°57' W 080°28'4 6.2
2018-Aug-14 14:54N 31°57' W 080°24'3 6.5
2018-Aug-14 14:29N 31°58' W 080°21'611.7
2018-Aug-14 13:58N 31°58' W 080°14'613.4
2018-Aug-14 13:30N 31°59' W 080°06'817.2
2018-Aug-14 13:00N 32°01' W 079°57'917.8
2018-Aug-14 12:30N 32°04' W 079°47'1119.9
2018-Aug-14 11:57N 32°08' W 079°35'920.0
2018-Aug-14 11:31N 32°12' W 079°25'1120.3
2018-Aug-14 10:58N 32°18' W 079°14'13519.4
2018-Aug-14 04:00N 33°24' W 076°54'21513.9 030 / 331018.0 26.019.925.0
2018-Aug-13 12:33N 36°58' W 076°20'0 9.5
2018-Aug-13 12:30N 36°57' W 076°20'3 5.2
2018-Aug-13 12:00N 36°55' W 076°20'0 0.0
2018-Aug-13 10:39N 36°55' W 076°20'0 0.0
2018-Aug-13 10:21N 36°55' W 076°20'0 0.0
2018-Aug-13 10:00N 36°55' W 076°20'0 0.0
2018-Aug-13 09:30N 36°55' W 076°20'0 0.0
2018-Aug-13 09:00N 36°55' W 076°20'0 0.0
2018-Aug-13 08:27N 36°55' W 076°20'0 0.0
2018-Aug-13 08:00N 36°55' W 076°20'0 0.0
2018-Aug-13 07:30N 36°55' W 076°20'0 0.0
2018-Aug-13 07:00N 36°55' W 076°20'0 0.0
2018-Aug-13 05:57N 36°55' W 076°20'0 0.0
2018-Aug-13 05:15N 36°55' W 076°20'0 0.0
2018-Aug-13 04:57N 36°55' W 076°20'0 0.0
2018-Aug-13 04:27N 36°55' W 076°20'0 0.0
2018-Aug-13 03:57N 36°55' W 076°20'0 0.0
2018-Aug-13 03:30N 36°55' W 076°20'0 0.0
2018-Aug-13 03:00N 36°55' W 076°20'0 0.0
2018-Aug-13 02:30N 36°55' W 076°20'0 0.0
2018-Aug-13 02:00N 36°55' W 076°20'0 0.0
2018-Aug-13 01:21N 36°55' W 076°20'0 0.0
2018-Aug-13 01:00N 36°55' W 076°20'0 0.0
2018-Aug-13 00:27N 36°55' W 076°20'0 0.0
2018-Aug-13 00:00N 36°55' W 076°20'0 0.0
2018-Aug-12 23:30N 36°55' W 076°20'0 0.0
2018-Aug-12 22:51N 36°55' W 076°20'0 0.0
2018-Aug-12 22:27N 36°55' W 076°20'0 0.0
2018-Aug-12 21:57N 36°55' W 076°20'0 0.0
2018-Aug-12 21:30N 36°55' W 076°20'0 0.0
2018-Aug-12 21:00N 36°55' W 076°20'0 0.0
2018-Aug-12 20:30N 36°55' W 076°20'0 0.0
2018-Aug-12 20:00N 36°55' W 076°20'0 0.0
2018-Aug-12 19:30N 36°55' W 076°20'0 0.1
2018-Aug-12 19:00N 36°55' W 076°20'0 0.0
2018-Aug-12 18:30N 36°55' W 076°20'0 0.0
2018-Aug-12 18:00N 36°55' W 076°20'0 0.0
2018-Aug-12 17:30N 36°55' W 076°20'0 0.1
2018-Aug-12 16:57N 36°55' W 076°20'0 0.1
2018-Aug-12 16:30N 36°55' W 076°20'0 0.0
2018-Aug-12 16:00N 36°55' W 076°20'0 0.0
2018-Aug-12 15:30N 36°55' W 076°20'0 0.0
2018-Aug-12 15:00N 36°55' W 076°20'0 0.0
2018-Aug-12 14:30N 36°55' W 076°20'0 0.0
2018-Aug-12 14:00N 36°55' W 076°20'0 0.0
2018-Aug-12 13:30N 36°55' W 076°20'0 0.0
2018-Aug-12 12:54N 36°55' W 076°20'0 0.0
2018-Aug-12 12:30N 36°55' W 076°20'0 0.0
2018-Aug-12 12:00N 36°55' W 076°20'0 0.0
2018-Aug-12 11:30N 36°55' W 076°20'0 0.0
2018-Aug-12 11:00N 36°55' W 076°20'0 0.0
2018-Aug-12 10:30N 36°55' W 076°20'0 0.0
2018-Aug-12 10:00N 36°55' W 076°20'0 0.0
2018-Aug-12 09:30N 36°55' W 076°20'1 1.4
2018-Aug-12 09:01N 36°55' W 076°20'4 7.6
2018-Aug-12 08:26N 36°59' W 076°19'711.2
2018-Aug-12 07:51N 36°59' W 076°11'18813.3
2018-Aug-11 17:44N 39°34' W 073°53'418.1
2018-Aug-11 17:30N 39°38' W 073°53'917.9
2018-Aug-11 17:00N 39°47' W 073°52'1217.8
2018-Aug-11 16:20N 39°59' W 073°51'2113.1
2018-Aug-11 14:45N 40°19' W 073°49'3 9.7
2018-Aug-11 14:29N 40°22' W 073°49'4 9.4
2018-Aug-11 14:00N 40°26' W 073°50'5 9.5
2018-Aug-11 13:30N 40°29' W 073°55'5 9.7
2018-Aug-11 13:00N 40°31' W 074°00'5 9.3
2018-Aug-11 12:30N 40°36' W 074°03'4 7.7
2018-Aug-11 12:00N 40°39' W 074°05'3 5.3
2018-Aug-11 11:30N 40°39' W 074°09'1 2.7
2018-Aug-11 10:57N 40°41' W 074°08'0 0.0
2018-Aug-11 10:30N 40°41' W 074°08'0 0.0
2018-Aug-11 09:57N 40°41' W 074°08'0 0.0
2018-Aug-11 09:30N 40°41' W 074°08'0 0.0
2018-Aug-11 08:57N 40°41' W 074°08'0 0.0
2018-Aug-11 08:30N 40°41' W 074°08'0 0.0
2018-Aug-11 07:57N 40°41' W 074°08'0 0.0
2018-Aug-11 07:30N 40°41' W 074°08'0 0.0
2018-Aug-11 07:00N 40°41' W 074°08'0 0.0
2018-Aug-11 06:30N 40°41' W 074°09'0 0.0
2018-Aug-11 06:00N 40°41' W 074°08'0 0.0
2018-Aug-11 05:30N 40°41' W 074°08'0 0.0
2018-Aug-11 05:00N 40°41' W 074°08'0 0.0
2018-Aug-11 04:30N 40°41' W 074°08'0 0.0
2018-Aug-11 04:00N 40°41' W 074°08'0 0.0
2018-Aug-11 03:30N 40°41' W 074°09'0 0.0
2018-Aug-11 03:00N 40°41' W 074°09'0 0.0
2018-Aug-11 02:30N 40°41' W 074°08'0 0.0
2018-Aug-11 02:00N 40°41' W 074°09'0 0.1
2018-Aug-11 01:30N 40°41' W 074°08'0 0.0
2018-Aug-11 00:57N 40°41' W 074°08'0 0.0
2018-Aug-11 00:30N 40°41' W 074°08'0 0.0
2018-Aug-10 23:57N 40°41' W 074°08'0 0.0
2018-Aug-10 23:30N 40°41' W 074°09'0 0.0
2018-Aug-10 23:00N 40°41' W 074°08'0 0.0
2018-Aug-10 22:30N 40°41' W 074°08'0 0.0
2018-Aug-10 22:00N 40°41' W 074°08'0 0.0
2018-Aug-10 21:30N 40°41' W 074°08'0 0.0
2018-Aug-10 21:00N 40°41' W 074°08'0 0.0
2018-Aug-10 20:30N 40°41' W 074°08'0 0.0
2018-Aug-10 20:00N 40°41' W 074°08'0 0.0
2018-Aug-10 19:30N 40°41' W 074°08'0 0.0
2018-Aug-10 18:57N 40°41' W 074°08'0 0.0
2018-Aug-10 18:27N 40°41' W 074°08'0 0.0
2018-Aug-10 17:54N 40°41' W 074°08'0 0.0
2018-Aug-10 17:27N 40°41' W 074°08'0 0.0
2018-Aug-10 17:00N 40°41' W 074°08'0 0.0
2018-Aug-10 16:27N 40°41' W 074°08'0 0.0
2018-Aug-10 16:00N 40°41' W 074°08'0 0.0
2018-Aug-10 15:30N 40°41' W 074°08'0 0.0
2018-Aug-10 15:00N 40°41' W 074°08'0 0.0
2018-Aug-10 14:27N 40°41' W 074°08'0 0.0
2018-Aug-10 14:00N 40°41' W 074°08'0 0.0
2018-Aug-10 13:30N 40°41' W 074°08'0 0.0
2018-Aug-10 12:57N 40°41' W 074°08'0 0.0
2018-Aug-10 12:30N 40°41' W 074°08'0 0.0
2018-Aug-10 12:00N 40°41' W 074°08'0 0.0
2018-Aug-10 11:30N 40°41' W 074°08'0 0.0
2018-Aug-10 11:00N 40°41' W 074°08'0 0.0
2018-Aug-10 10:30N 40°41' W 074°08'0 0.0
2018-Aug-10 10:00N 40°41' W 074°08'0 0.0
2018-Aug-10 09:30N 40°41' W 074°08'0 0.0
2018-Aug-10 09:00N 40°41' W 074°08'0 0.0
2018-Aug-10 08:30N 40°41' W 074°08'0 0.0
2018-Aug-10 08:01N 40°41' W 074°08'0 0.0
2018-Aug-10 07:30N 40°41' W 074°08'0 0.0
2018-Aug-10 07:00N 40°41' W 074°08'0 0.0
2018-Aug-10 06:30N 40°41' W 074°08'0 0.0
2018-Aug-10 06:00N 40°41' W 074°08'0 0.0
2018-Aug-10 05:30N 40°41' W 074°08'0 0.0
2018-Aug-10 05:00N 40°41' W 074°08'0 0.0
2018-Aug-10 04:30N 40°41' W 074°08'0 0.0
2018-Aug-10 04:00N 40°41' W 074°08'0 0.0
2018-Aug-10 03:30N 40°41' W 074°08'0 0.0
2018-Aug-10 03:00N 40°41' W 074°08'0 0.0
2018-Aug-10 02:30N 40°41' W 074°08'0 0.0
2018-Aug-10 02:00N 40°41' W 074°08'0 0.0
2018-Aug-10 01:30N 40°41' W 074°08'0 0.0
2018-Aug-10 01:00N 40°41' W 074°08'0 0.0
2018-Aug-10 00:30N 40°41' W 074°08'0 0.0
2018-Aug-10 00:00N 40°41' W 074°08'0 0.0
2018-Aug-09 23:27N 40°41' W 074°08'0 0.0
2018-Aug-09 23:00N 40°41' W 074°08'0 0.0
2018-Aug-09 22:30N 40°41' W 074°09'0 0.0
2018-Aug-09 22:00N 40°41' W 074°08'0 0.0
2018-Aug-09 21:30N 40°41' W 074°08'0 0.2
2018-Aug-09 21:00N 40°41' W 074°08'2 4.0
2018-Aug-09 20:30N 40°39' W 074°09'4 7.4
2018-Aug-09 20:00N 40°39' W 074°04'4 8.6
2018-Aug-09 19:30N 40°35' W 074°02'5 9.1
2018-Aug-09 19:00N 40°31' W 073°59'5 9.8
2018-Aug-09 18:30N 40°29' W 073°53'4 8.3
2018-Aug-09 17:58N 40°27' W 073°48'6 4.3
2018-Aug-09 16:36N 40°29' W 073°41'1 7.8
2018-Aug-09 16:29N 40°29' W 073°40'1 0.6
2018-Aug-09 14:46N 40°29' W 073°38'0 0.0
2018-Aug-09 14:25N 40°29' W 073°38'0 0.0
2018-Aug-09 12:22N 40°29' W 073°38'0 0.0
2018-Aug-09 06:31N 40°29' W 073°38'0 0.0
2018-Aug-09 05:43N 40°29' W 073°38'0 0.0
2018-Aug-09 05:28N 40°29' W 073°38'0 0.0
2018-Aug-08 23:40N 40°29' W 073°38'0 0.0
2018-Aug-08 23:28N 40°29' W 073°38'0 0.0
2018-Aug-08 21:51N 40°29' W 073°38'0 0.0
2018-Aug-08 21:30N 40°29' W 073°38'1 1.9
2018-Aug-08 20:57N 40°28' W 073°38'4 9.2
2018-Aug-08 20:30N 40°28' W 073°32'610.7
2018-Aug-08 19:59N 40°28' W 073°25'611.8
2018-Aug-08 19:30N 40°29' W 073°18'611.8
2018-Aug-08 19:00N 40°29' W 073°10'611.8
2018-Aug-08 18:30N 40°30' W 073°02'612.0
2018-Aug-08 17:59N 40°30' W 072°54'11411.4
2018-Aug-08 08:00N 40°30' W 070°24'5012.5 340 / 161016.010.8 22.018.925.0
2018-Aug-08 04:00N 40°30' W 069°18'1512.4 110 / 281018.0 21.019.422.0
2018-Aug-08 02:48N 40°35' W 068°59'2311.5
2018-Aug-08 00:49N 40°41' W 068°31'411.7
2018-Aug-08 00:30N 40°42' W 068°26'1311.1
2018-Aug-07 23:18N 40°48' W 068°10'611.3
2018-Aug-07 22:44N 40°51' W 068°03'  

Dump ship's entire track history